createdAt,value
2022-10-18T00:00:15.837Z,60.04
2022-10-18T00:01:15.836Z,61.98
2022-10-18T00:02:15.971Z,59.91
2022-10-18T00:03:15.816Z,59.14
2022-10-18T00:04:15.809Z,57.80
2022-10-18T00:05:15.843Z,60.32
2022-10-18T00:06:15.796Z,60.45
2022-10-18T00:07:15.799Z,61.10
2022-10-18T00:08:15.806Z,59.39
2022-10-18T00:09:15.773Z,62.73
2022-10-18T00:10:15.766Z,59.51
2022-10-18T00:11:15.750Z,61.88
2022-10-18T00:12:15.740Z,62.56
2022-10-18T00:13:15.728Z,61.50
2022-10-18T00:14:15.872Z,60.00
2022-10-18T00:15:15.721Z,63.20
2022-10-18T00:16:15.710Z,59.21
2022-10-18T00:17:16.146Z,61.72
2022-10-18T00:18:15.681Z,62.43
2022-10-18T00:19:15.703Z,61.37
2022-10-18T00:20:15.672Z,55.81
2022-10-18T00:21:15.673Z,55.31
2022-10-18T00:22:15.660Z,59.54
2022-10-18T00:23:15.650Z,57.79
2022-10-18T00:24:15.642Z,63.33
2022-10-18T00:25:15.659Z,57.19
2022-10-18T00:26:15.626Z,59.24
2022-10-18T00:27:15.614Z,61.77
2022-10-18T00:28:15.593Z,63.20
2022-10-18T00:29:15.591Z,60.68
2022-10-18T00:30:15.584Z,56.15
2022-10-18T00:31:15.606Z,61.24
2022-10-18T00:32:15.577Z,58.39
2022-10-18T00:33:15.565Z,63.37
2022-10-18T00:34:15.564Z,59.95
2022-10-18T00:35:15.546Z,62.01
2022-10-18T00:36:15.554Z,59.67
2022-10-18T00:37:15.578Z,59.96
2022-10-18T00:38:15.516Z,59.04
2022-10-18T00:39:15.514Z,61.73
2022-10-18T00:40:15.512Z,54.56
2022-10-18T00:41:15.493Z,59.61
2022-10-18T00:42:15.485Z,59.95
2022-10-18T00:43:15.510Z,55.58
2022-10-18T00:44:15.477Z,60.49
2022-10-18T00:45:15.472Z,57.87
2022-10-18T00:46:15.460Z,58.23
2022-10-18T00:47:15.455Z,57.78
2022-10-18T00:48:15.455Z,58.12
2022-10-18T00:49:15.479Z,60.28
2022-10-18T00:50:15.432Z,56.55
2022-10-18T00:51:15.417Z,61.13
2022-10-18T00:52:15.423Z,62.25
2022-10-18T00:53:15.411Z,59.25
2022-10-18T00:54:15.414Z,57.06
2022-10-18T00:55:15.398Z,60.82
2022-10-18T00:56:15.378Z,57.14
2022-10-18T00:57:15.374Z,59.04
2022-10-18T00:58:15.367Z,58.90
2022-10-18T00:59:15.356Z,60.81
2022-10-18T01:00:15.371Z,61.34
2022-10-18T01:01:15.371Z,63.71
2022-10-18T01:02:15.329Z,58.75
2022-10-18T01:03:15.327Z,54.81
2022-10-18T01:04:15.470Z,59.19
2022-10-18T01:05:15.327Z,59.15
2022-10-18T01:06:15.482Z,62.15
2022-10-18T01:07:15.321Z,59.72
2022-10-18T01:08:15.313Z,58.66
2022-10-18T01:09:15.266Z,60.39
2022-10-18T01:10:15.256Z,61.15
2022-10-18T01:11:15.410Z,59.03
2022-10-18T01:12:15.239Z,59.22
2022-10-18T01:13:15.266Z,58.43
2022-10-18T01:14:15.226Z,59.06
2022-10-18T01:15:15.226Z,62.87
2022-10-18T01:16:15.218Z,59.93
2022-10-18T01:17:15.213Z,61.53
2022-10-18T01:18:15.289Z,55.74
2022-10-18T01:19:15.194Z,60.24
2022-10-18T01:20:15.184Z,62.62
2022-10-18T01:21:15.181Z,59.73
2022-10-18T01:22:15.202Z,61.33
2022-10-18T01:23:15.151Z,58.17
2022-10-18T01:24:15.157Z,58.66
2022-10-18T01:25:15.141Z,57.76
2022-10-18T01:26:15.125Z,54.24
2022-10-18T01:27:15.115Z,58.66
2022-10-18T01:28:15.117Z,53.97
2022-10-18T01:29:15.162Z,57.76
2022-10-18T01:30:15.097Z,62.61
2022-10-18T01:31:15.098Z,56.83
2022-10-18T01:32:15.106Z,55.26
2022-10-18T01:33:15.072Z,61.20
2022-10-18T01:34:15.066Z,59.50
2022-10-18T01:35:15.076Z,58.05
2022-10-18T01:36:15.062Z,57.14
2022-10-18T01:37:15.035Z,58.49
2022-10-18T01:38:15.017Z,55.59
2022-10-18T01:39:15.025Z,61.51
2022-10-18T01:40:15.009Z,56.44
2022-10-18T01:41:15.943Z,55.08
2022-10-18T01:42:14.994Z,62.10
2022-10-18T01:43:14.993Z,60.65
2022-10-18T01:44:14.978Z,60.65
2022-10-18T01:45:14.975Z,56.04
2022-10-18T01:46:14.967Z,59.83
2022-10-18T01:47:14.967Z,58.52
2022-10-18T01:48:14.938Z,52.83
2022-10-18T01:49:14.934Z,60.15
2022-10-18T01:50:14.921Z,64.52
2022-10-18T01:51:14.925Z,58.92
2022-10-18T01:52:14.919Z,63.44
2022-10-18T01:53:14.925Z,59.39
2022-10-18T01:54:14.932Z,63.20
2022-10-18T01:55:14.887Z,63.61
2022-10-18T01:56:14.884Z,65.37
2022-10-18T01:57:14.882Z,66.12
2022-10-18T01:58:14.858Z,60.91
2022-10-18T01:59:14.879Z,64.97
2022-10-18T02:00:14.841Z,64.08
2022-10-18T02:01:14.866Z,64.52
2022-10-18T02:02:14.854Z,62.34
2022-10-18T02:03:14.826Z,60.13
2022-10-18T02:04:14.995Z,63.26
2022-10-18T02:05:14.827Z,62.12
2022-10-18T02:06:14.792Z,63.88
2022-10-18T02:07:14.786Z,68.06
2022-10-18T02:08:22.933Z,66.06
2022-10-18T02:09:15.770Z,65.51
2022-10-18T02:11:14.763Z,64.82
2022-10-18T02:12:14.747Z,63.75
2022-10-18T02:13:14.766Z,66.43
2022-10-18T02:14:14.817Z,67.12
2022-10-18T02:15:14.731Z,64.65
2022-10-18T02:16:14.773Z,61.97
2022-10-18T02:17:14.709Z,64.80
2022-10-18T02:18:14.696Z,65.31
2022-10-18T02:19:14.872Z,68.48
2022-10-18T02:20:14.674Z,67.41
2022-10-18T02:21:14.695Z,64.59
2022-10-18T02:22:14.675Z,61.26
2022-10-18T02:23:14.669Z,63.65
2022-10-18T02:24:14.714Z,61.30
2022-10-18T02:25:14.630Z,66.94
2022-10-18T02:26:14.649Z,66.52
2022-10-18T02:27:14.656Z,62.13
2022-10-18T02:28:14.626Z,64.80
2022-10-18T02:29:14.705Z,61.02
2022-10-18T02:30:14.597Z,67.14
2022-10-18T02:31:14.580Z,66.66
2022-10-18T02:32:14.577Z,65.20
2022-10-18T02:33:14.589Z,66.08
2022-10-18T02:34:14.597Z,63.57
2022-10-18T02:35:14.556Z,62.91
2022-10-18T02:36:14.541Z,65.02
2022-10-18T02:37:14.608Z,66.94
2022-10-18T02:38:14.521Z,65.34
2022-10-18T02:39:14.686Z,65.91
2022-10-18T02:40:14.525Z,64.12
2022-10-18T02:41:14.497Z,67.17
2022-10-18T02:42:14.514Z,63.69
2022-10-18T02:43:14.491Z,67.78
2022-10-18T02:44:14.489Z,67.75
2022-10-18T02:45:14.479Z,69.25
2022-10-18T02:46:14.522Z,70.98
2022-10-18T02:47:14.455Z,70.22
2022-10-18T02:48:14.470Z,70.17
2022-10-18T02:49:14.459Z,71.28
2022-10-18T02:50:14.426Z,69.15
2022-10-18T02:51:14.402Z,69.70
2022-10-18T02:52:14.400Z,70.04
2022-10-18T02:53:14.392Z,65.52
2022-10-18T02:54:14.386Z,66.98
2022-10-18T02:55:14.435Z,69.52
2022-10-18T02:56:14.375Z,69.75
2022-10-18T02:57:14.375Z,67.85
2022-10-18T02:58:14.354Z,66.35
2022-10-18T02:59:14.347Z,63.69
2022-10-18T03:00:14.358Z,65.83
2022-10-18T03:01:14.375Z,63.79
2022-10-18T03:02:14.332Z,63.24
2022-10-18T03:03:14.317Z,63.73
2022-10-18T03:04:14.437Z,66.38
2022-10-18T03:05:14.302Z,65.83
2022-10-18T03:06:14.316Z,67.62
2022-10-18T03:07:14.286Z,67.07
2022-10-18T03:08:14.282Z,66.29
2022-10-18T03:09:14.257Z,66.86
2022-10-18T03:10:14.250Z,66.67
2022-10-18T03:11:14.271Z,66.13
2022-10-18T03:12:14.235Z,67.38
2022-10-18T03:13:14.242Z,66.25
2022-10-18T03:14:14.227Z,66.81
2022-10-18T03:15:14.219Z,62.72
2022-10-18T03:16:14.245Z,65.90
2022-10-18T03:17:14.232Z,64.99
2022-10-18T03:18:14.204Z,67.80
2022-10-18T03:19:14.189Z,65.12
2022-10-18T03:20:14.188Z,62.57
2022-10-18T03:21:14.168Z,65.51
2022-10-18T03:22:14.160Z,65.98
2022-10-18T03:23:14.170Z,64.64
2022-10-18T03:24:14.152Z,66.64
2022-10-18T03:25:14.131Z,67.04
2022-10-18T03:26:14.149Z,68.00
2022-10-18T03:27:14.123Z,63.64
2022-10-18T03:28:14.111Z,65.63
2022-10-18T03:29:14.131Z,65.04
2022-10-18T03:30:14.105Z,66.89
2022-10-18T03:31:14.090Z,66.28
2022-10-18T03:32:14.084Z,66.53
2022-10-18T03:33:14.074Z,66.26
2022-10-18T03:34:14.075Z,65.98
2022-10-18T03:35:14.074Z,67.37
2022-10-18T03:36:14.046Z,68.51
2022-10-18T03:37:14.027Z,66.78
2022-10-18T03:38:14.027Z,67.41
2022-10-18T03:39:14.016Z,69.82
2022-10-18T03:40:14.025Z,68.87
2022-10-18T03:41:14.030Z,65.02
2022-10-18T03:42:13.996Z,68.45
2022-10-18T03:43:13.990Z,67.91
2022-10-18T03:44:13.981Z,66.23
2022-10-18T03:45:13.966Z,69.22
2022-10-18T03:46:13.988Z,68.00
2022-10-18T03:47:13.953Z,64.30
2022-10-18T03:48:13.941Z,65.56
2022-10-18T03:49:13.932Z,66.60
2022-10-18T03:50:13.934Z,66.97
2022-10-18T03:51:13.920Z,68.07
2022-10-18T03:52:13.937Z,62.21
2022-10-18T03:53:13.898Z,63.69
2022-10-18T03:54:13.900Z,66.61
2022-10-18T03:55:13.888Z,69.62
2022-10-18T03:56:13.895Z,69.07
2022-10-18T03:57:13.868Z,69.56
2022-10-18T03:58:13.878Z,69.15
2022-10-18T03:59:13.849Z,68.62
2022-10-18T04:00:13.844Z,69.12
2022-10-18T04:01:13.869Z,64.57
2022-10-18T04:02:13.834Z,69.68
2022-10-18T04:03:13.840Z,70.54
2022-10-18T04:04:13.805Z,70.66
2022-10-18T04:05:13.814Z,68.64
2022-10-18T04:06:13.802Z,67.66
2022-10-18T04:07:13.778Z,67.72
2022-10-18T04:08:13.776Z,68.84
2022-10-18T04:09:13.790Z,68.67
2022-10-18T04:10:13.755Z,68.03
2022-10-18T04:11:13.753Z,68.22
2022-10-18T04:12:13.752Z,67.67
2022-10-18T04:13:13.739Z,68.48
2022-10-18T04:14:13.723Z,67.77
2022-10-18T04:15:13.739Z,67.83
2022-10-18T04:16:13.709Z,68.13
2022-10-18T04:17:13.692Z,68.64
2022-10-18T04:18:13.747Z,68.53
2022-10-18T04:19:13.678Z,67.73
2022-10-18T04:20:13.705Z,66.55
2022-10-18T04:21:13.667Z,67.21
2022-10-18T04:22:13.658Z,72.17
2022-10-18T04:23:13.642Z,68.66
2022-10-18T04:24:13.640Z,67.86
2022-10-18T04:25:13.649Z,69.86
2022-10-18T04:26:13.648Z,68.90
2022-10-18T04:27:13.617Z,68.53
2022-10-18T04:28:13.617Z,69.71
2022-10-18T04:29:13.619Z,69.99
2022-10-18T04:30:13.596Z,69.53
2022-10-18T04:31:19.559Z,68.59
2022-10-18T04:32:14.603Z,62.80
2022-10-18T04:33:13.570Z,68.23
2022-10-18T04:34:13.593Z,69.17
2022-10-18T04:35:13.551Z,68.62
2022-10-18T04:36:13.546Z,64.30
2022-10-18T04:37:13.537Z,68.23
2022-10-18T04:38:13.531Z,67.30
2022-10-18T04:39:13.515Z,65.73
2022-10-18T04:40:13.539Z,66.40
2022-10-18T04:41:13.513Z,66.55
2022-10-18T04:42:13.501Z,66.22
2022-10-18T04:43:13.485Z,65.55
2022-10-18T04:44:13.514Z,65.55
2022-10-18T04:45:13.470Z,66.68
2022-10-18T04:46:13.481Z,67.47
2022-10-18T04:47:13.449Z,64.28
2022-10-18T04:48:13.481Z,66.03
2022-10-18T04:49:13.454Z,69.09
2022-10-18T04:50:13.433Z,67.46
2022-10-18T04:51:13.431Z,67.08
2022-10-18T04:52:13.413Z,69.72
2022-10-18T04:53:13.462Z,68.69
2022-10-18T04:54:13.400Z,65.74
2022-10-18T04:55:13.398Z,67.00
2022-10-18T04:56:13.394Z,69.22
2022-10-18T04:57:13.398Z,68.79
2022-10-18T04:58:13.388Z,67.39
2022-10-18T04:59:13.358Z,66.55
2022-10-18T05:00:13.379Z,68.05
2022-10-18T05:01:13.359Z,68.88
2022-10-18T05:02:13.332Z,68.12
2022-10-18T05:03:13.321Z,68.11
2022-10-18T05:04:13.343Z,67.33
2022-10-18T05:05:14.243Z,64.58
2022-10-18T05:06:13.380Z,62.36
2022-10-18T05:07:13.303Z,68.52
2022-10-18T05:08:13.300Z,67.42
2022-10-18T05:09:13.274Z,66.64
2022-10-18T05:10:13.290Z,64.34
2022-10-18T05:11:13.291Z,66.22
2022-10-18T05:12:13.255Z,65.78
2022-10-18T05:13:13.236Z,66.75
2022-10-18T05:14:13.240Z,66.75
2022-10-18T05:15:13.227Z,67.64
2022-10-18T05:16:13.219Z,68.12
2022-10-18T05:17:13.228Z,67.34
2022-10-18T05:18:13.210Z,66.43
2022-10-18T05:19:13.189Z,66.06
2022-10-18T05:21:13.175Z,64.73
2022-10-18T05:22:13.183Z,64.98
2022-10-18T05:23:13.231Z,64.82
2022-10-18T05:24:13.191Z,67.61
2022-10-18T05:25:13.148Z,66.58
2022-10-18T05:26:13.151Z,66.25
2022-10-18T05:27:13.170Z,65.38
2022-10-18T05:28:38.205Z,66.57
2022-10-18T05:29:14.202Z,66.94
2022-10-18T05:30:13.116Z,63.63
2022-10-18T05:31:13.096Z,62.95
2022-10-18T05:32:13.095Z,65.83
2022-10-18T05:33:13.084Z,67.21
2022-10-18T05:34:13.083Z,67.71
2022-10-18T05:35:13.099Z,68.65
2022-10-18T05:36:13.080Z,66.91
2022-10-18T05:37:13.069Z,65.32
2022-10-18T05:38:13.047Z,64.27
2022-10-18T05:39:13.048Z,68.59
2022-10-18T05:40:13.045Z,68.18
2022-10-18T05:41:13.061Z,66.13
2022-10-18T05:42:13.011Z,65.36
2022-10-18T05:43:12.997Z,65.52
2022-10-18T05:44:13.036Z,67.77
2022-10-18T05:45:12.973Z,68.34
2022-10-18T05:46:15.349Z,67.86
2022-10-18T05:47:12.973Z,68.20
2022-10-18T05:48:12.994Z,67.34
2022-10-18T05:49:12.955Z,66.26
2022-10-18T05:50:12.940Z,64.37
2022-10-18T05:51:12.930Z,65.21
2022-10-18T05:52:12.962Z,66.67
2022-10-18T05:54:13.901Z,64.29
2022-10-18T05:55:12.892Z,67.53
2022-10-18T05:56:12.881Z,66.23
2022-10-18T05:57:12.880Z,67.11
2022-10-18T05:58:12.889Z,66.49
2022-10-18T05:59:12.879Z,67.64
2022-10-18T06:00:12.860Z,64.68
2022-10-18T06:01:12.846Z,65.96
2022-10-18T06:02:12.914Z,66.71
2022-10-18T06:03:12.825Z,68.68
2022-10-18T06:04:12.871Z,66.61
2022-10-18T06:05:12.816Z,65.72
2022-10-18T06:06:12.831Z,63.85
2022-10-18T06:07:12.823Z,63.56
2022-10-18T06:08:12.786Z,67.55
2022-10-18T06:09:12.760Z,63.46
2022-10-18T06:10:12.760Z,63.47
2022-10-18T06:11:12.759Z,65.18
2022-10-18T06:12:12.744Z,66.65
2022-10-18T06:13:12.764Z,64.94
2022-10-18T06:14:12.760Z,63.03
2022-10-18T06:15:12.735Z,64.69
2022-10-18T06:16:12.886Z,63.49
2022-10-18T06:17:12.716Z,66.86
2022-10-18T06:18:12.712Z,66.91
2022-10-18T06:19:12.711Z,65.53
2022-10-18T06:20:12.689Z,66.27
2022-10-18T06:21:12.690Z,64.28
2022-10-18T06:22:12.694Z,64.99
2022-10-18T06:23:12.661Z,61.96
2022-10-18T06:24:12.651Z,67.01
2022-10-18T06:25:12.646Z,67.23
2022-10-18T06:26:12.634Z,65.66
2022-10-18T06:27:12.631Z,66.86
2022-10-18T06:28:12.637Z,67.67
2022-10-18T06:29:12.658Z,67.51
2022-10-18T06:30:12.609Z,66.23
2022-10-18T06:31:12.599Z,68.11
2022-10-18T06:32:12.589Z,66.37
2022-10-18T06:33:14.270Z,67.74
2022-10-18T06:34:12.570Z,66.21
2022-10-18T06:35:12.578Z,67.58
2022-10-18T06:36:12.577Z,68.31
2022-10-18T06:37:12.542Z,68.15
2022-10-18T06:38:12.650Z,66.88
2022-10-18T06:39:12.530Z,69.39
2022-10-18T06:40:12.512Z,66.98
2022-10-18T06:41:12.503Z,64.99
2022-10-18T06:42:12.491Z,67.88
2022-10-18T06:43:20.638Z,66.18
2022-10-18T06:44:13.498Z,66.47
2022-10-18T06:45:12.479Z,67.23
2022-10-18T06:46:12.485Z,68.76
2022-10-18T06:47:12.471Z,66.41
2022-10-18T06:48:12.493Z,65.21
2022-10-18T06:49:14.098Z,65.83
2022-10-18T06:50:12.439Z,68.28
2022-10-18T06:51:12.451Z,65.84
2022-10-18T06:52:12.437Z,65.84
2022-10-18T06:53:12.406Z,67.35
2022-10-18T06:54:17.831Z,65.39
2022-10-18T06:55:13.401Z,66.12
2022-10-18T06:56:12.382Z,67.39
2022-10-18T06:57:12.409Z,65.59
2022-10-18T06:58:12.389Z,66.37
2022-10-18T06:59:12.360Z,64.87
2022-10-18T07:00:12.371Z,65.99
2022-10-18T07:01:12.443Z,66.30
2022-10-18T07:02:12.335Z,65.45
2022-10-18T07:03:12.346Z,67.41
2022-10-18T07:04:12.436Z,65.62
2022-10-18T07:05:12.322Z,65.98
2022-10-18T07:06:12.302Z,66.70
2022-10-18T07:07:12.321Z,65.79
2022-10-18T07:08:12.288Z,64.35
2022-10-18T07:09:12.294Z,64.00
2022-10-18T07:10:13.093Z,64.86
2022-10-18T07:11:12.267Z,66.15
2022-10-18T07:12:12.245Z,64.85
2022-10-18T07:13:31.338Z,65.59
2022-10-18T07:14:16.298Z,66.93
2022-10-18T07:15:12.249Z,67.33
2022-10-18T07:16:14.294Z,66.55
2022-10-18T07:17:13.315Z,65.67
2022-10-18T07:18:12.216Z,66.82
2022-10-18T07:19:12.216Z,63.57
2022-10-18T07:20:12.202Z,66.19
2022-10-18T07:21:12.172Z,65.52
2022-10-18T07:22:12.170Z,63.69
2022-10-18T07:23:12.160Z,65.34
2022-10-18T07:24:12.156Z,64.75
2022-10-18T07:25:12.140Z,67.47
2022-10-18T07:26:12.159Z,61.74
2022-10-18T07:27:12.142Z,64.81
2022-10-18T07:28:12.125Z,65.58
2022-10-18T07:29:12.116Z,66.43
2022-10-18T07:30:12.106Z,66.41
2022-10-18T07:31:12.101Z,61.95
2022-10-18T07:32:12.117Z,60.31
2022-10-18T07:33:12.081Z,66.36
2022-10-18T07:34:12.075Z,65.85
2022-10-18T07:36:12.049Z,62.46
2022-10-18T07:37:12.048Z,63.57
2022-10-18T07:38:12.053Z,65.28
2022-10-18T07:39:12.030Z,65.75
2022-10-18T07:40:12.021Z,65.88
2022-10-18T07:41:12.053Z,63.51
2022-10-18T07:42:12.003Z,64.29
2022-10-18T07:43:12.390Z,65.78
2022-10-18T07:44:12.009Z,65.14
2022-10-18T07:45:12.142Z,64.79
2022-10-18T07:46:11.974Z,64.34
2022-10-18T07:47:11.988Z,65.92
2022-10-18T07:48:11.954Z,64.57
2022-10-18T07:49:12.000Z,65.73
2022-10-18T07:50:11.947Z,63.43
2022-10-18T07:51:11.931Z,64.19
2022-10-18T07:52:11.924Z,65.57
2022-10-18T07:53:11.913Z,60.92
2022-10-18T07:54:11.957Z,62.72
2022-10-18T07:55:11.911Z,63.68
2022-10-18T07:56:11.917Z,62.98
2022-10-18T07:57:11.896Z,65.50
2022-10-18T07:58:12.748Z,65.65
2022-10-18T07:59:11.866Z,65.46
2022-10-18T08:00:11.878Z,65.40
2022-10-18T08:01:11.886Z,63.65
2022-10-18T08:02:11.842Z,64.44
2022-10-18T08:03:11.836Z,64.22
2022-10-18T08:04:16.230Z,64.60
2022-10-18T08:05:11.826Z,63.88
2022-10-18T08:06:11.836Z,65.56
2022-10-18T08:07:11.842Z,64.25
2022-10-18T08:08:12.035Z,64.89
2022-10-18T08:09:11.836Z,64.51
2022-10-18T08:10:11.796Z,65.61
2022-10-18T08:11:11.784Z,62.57
2022-10-18T08:12:11.776Z,63.27
2022-10-18T08:13:11.791Z,63.64
2022-10-18T08:14:11.773Z,61.99
2022-10-18T08:15:11.746Z,59.79
2022-10-18T08:16:11.730Z,62.11
2022-10-18T08:17:11.728Z,62.41
2022-10-18T08:18:11.727Z,62.60
2022-10-18T08:19:11.727Z,64.44
2022-10-18T08:20:26.150Z,63.46
2022-10-18T08:21:12.714Z,61.08
2022-10-18T08:22:11.695Z,61.86
2022-10-18T08:23:11.676Z,60.62
2022-10-18T08:24:11.698Z,63.98
2022-10-18T08:25:11.686Z,62.66
2022-10-18T08:26:11.655Z,63.22
2022-10-18T08:27:11.651Z,60.60
2022-10-18T08:28:11.635Z,60.62
2022-10-18T08:29:23.016Z,61.86
2022-10-18T08:30:12.636Z,63.16
2022-10-18T08:31:11.608Z,62.95
2022-10-18T08:32:11.648Z,63.07
2022-10-18T08:33:11.587Z,62.24
2022-10-18T08:34:14.794Z,63.12
2022-10-18T08:35:12.581Z,61.63
2022-10-18T08:36:11.584Z,61.76
2022-10-18T08:37:11.555Z,61.53
2022-10-18T08:38:16.384Z,61.02
2022-10-18T08:39:12.557Z,62.59
2022-10-18T08:40:11.579Z,64.10
2022-10-18T08:41:11.529Z,63.70
2022-10-18T08:42:11.532Z,64.98
2022-10-18T08:43:11.510Z,65.51
2022-10-18T08:44:11.508Z,65.75
2022-10-18T08:45:17.766Z,64.66
2022-10-18T08:46:12.493Z,64.27
2022-10-18T08:47:11.507Z,65.81
2022-10-18T08:48:11.484Z,65.29
2022-10-18T08:49:11.453Z,66.33
2022-10-18T08:50:11.453Z,65.98
2022-10-18T08:51:11.439Z,66.96
2022-10-18T08:52:11.452Z,66.97
2022-10-18T08:53:11.425Z,67.91
2022-10-18T08:54:11.409Z,65.95
2022-10-18T08:55:11.418Z,64.66
2022-10-18T08:56:11.408Z,65.32
2022-10-18T08:57:11.395Z,65.49
2022-10-18T08:58:11.497Z,65.36
2022-10-18T08:59:11.369Z,65.53
2022-10-18T09:00:11.456Z,67.14
2022-10-18T09:01:11.365Z,66.32
2022-10-18T09:02:11.440Z,66.37
2022-10-18T09:03:11.381Z,66.70
2022-10-18T09:04:11.347Z,66.29
2022-10-18T09:05:13.212Z,66.77
2022-10-18T09:06:11.316Z,65.70
2022-10-18T09:07:11.312Z,66.45
2022-10-18T09:08:11.297Z,66.67
2022-10-18T09:09:11.337Z,67.12
2022-10-18T09:10:11.355Z,65.84
2022-10-18T09:11:11.266Z,65.22
2022-10-18T09:12:11.260Z,66.73
2022-10-18T09:13:11.248Z,67.54
2022-10-18T09:14:11.245Z,65.87
2022-10-18T09:15:11.236Z,66.19
2022-10-18T09:16:11.253Z,65.78
2022-10-18T09:17:15.831Z,67.16
2022-10-18T09:18:12.221Z,67.06
2022-10-18T09:19:11.213Z,67.30
2022-10-18T09:20:11.205Z,65.07
2022-10-18T09:21:11.186Z,66.23
2022-10-18T09:22:11.208Z,65.36
2022-10-18T09:23:11.208Z,65.84
2022-10-18T09:24:11.166Z,66.83
2022-10-18T09:25:11.172Z,66.62
2022-10-18T09:26:11.136Z,66.84
2022-10-18T09:27:11.131Z,67.01
2022-10-18T09:28:11.140Z,64.99
2022-10-18T09:29:11.268Z,65.75
2022-10-18T09:30:11.103Z,65.81
2022-10-18T09:31:11.096Z,63.62
2022-10-18T09:32:11.094Z,63.30
2022-10-18T09:33:11.117Z,65.25
2022-10-18T09:34:11.117Z,64.16
2022-10-18T09:35:11.078Z,64.71
2022-10-18T09:36:11.077Z,63.45
2022-10-18T09:37:11.055Z,65.99
2022-10-18T09:38:11.045Z,66.47
2022-10-18T09:39:11.051Z,62.69
2022-10-18T09:40:14.006Z,62.44
2022-10-18T09:41:12.014Z,63.64
2022-10-18T09:42:11.015Z,64.86
2022-10-18T09:43:11.017Z,63.81
2022-10-18T09:44:10.994Z,64.99
2022-10-18T09:45:10.997Z,66.63
2022-10-18T09:46:11.013Z,66.91
2022-10-18T09:47:14.601Z,67.15
2022-10-18T09:48:11.958Z,65.59
2022-10-18T09:49:13.030Z,64.01
2022-10-18T09:50:11.998Z,64.02
2022-10-18T09:51:10.943Z,66.15
2022-10-18T09:52:10.971Z,65.95
2022-10-18T09:53:10.932Z,64.81
2022-10-18T09:54:10.910Z,63.91
2022-10-18T09:55:10.911Z,67.15
2022-10-18T09:56:10.906Z,65.73
2022-10-18T09:57:10.889Z,67.10
2022-10-18T09:58:11.113Z,65.77
2022-10-18T09:59:10.865Z,63.22
2022-10-18T10:00:10.852Z,65.41
2022-10-18T10:01:10.865Z,66.24
2022-10-18T10:02:10.922Z,66.83
2022-10-18T10:03:10.862Z,66.41
2022-10-18T10:04:10.856Z,66.09
2022-10-18T10:06:10.842Z,63.45
2022-10-18T10:07:10.831Z,63.04
2022-10-18T10:08:10.792Z,63.21
2022-10-18T10:09:10.823Z,63.94
2022-10-18T10:10:10.801Z,62.55
2022-10-18T10:11:10.765Z,64.07
2022-10-18T10:12:10.785Z,64.60
2022-10-18T10:13:10.756Z,64.78
2022-10-18T10:14:10.805Z,63.43
2022-10-18T10:15:10.740Z,64.50
2022-10-18T10:16:10.755Z,63.66
2022-10-18T10:17:10.731Z,62.94
2022-10-18T10:18:10.713Z,63.59
2022-10-18T10:19:10.705Z,64.83
2022-10-18T10:20:10.701Z,63.82
2022-10-18T10:21:10.836Z,63.61
2022-10-18T10:22:10.697Z,64.71
2022-10-18T10:23:10.756Z,63.40
2022-10-18T10:24:10.665Z,64.13
2022-10-18T10:25:10.662Z,64.38
2022-10-18T10:26:10.646Z,65.14
2022-10-18T10:27:10.644Z,65.04
2022-10-18T10:28:10.883Z,64.10
2022-10-18T10:29:17.422Z,63.67
2022-10-18T10:30:11.640Z,63.60
2022-10-18T10:31:10.609Z,63.92
2022-10-18T10:32:10.605Z,62.44
2022-10-18T10:33:10.596Z,63.34
2022-10-18T10:34:10.605Z,64.04
2022-10-18T10:35:18.306Z,64.13
2022-10-18T10:36:11.571Z,65.40
2022-10-18T10:37:10.566Z,64.78
2022-10-18T10:38:10.567Z,66.23
2022-10-18T10:39:10.531Z,64.99
2022-10-18T10:40:19.360Z,66.94
2022-10-18T10:41:11.528Z,65.69
2022-10-18T10:42:11.511Z,65.86
2022-10-18T10:43:19.610Z,64.65
2022-10-18T10:44:11.550Z,65.82
2022-10-18T10:45:10.888Z,65.13
2022-10-18T10:46:10.488Z,65.99
2022-10-18T10:47:10.480Z,65.11
2022-10-18T10:48:10.517Z,65.69
2022-10-18T10:50:11.485Z,62.90
2022-10-18T10:51:10.455Z,62.75
2022-10-18T10:52:26.369Z,64.19
2022-10-18T10:53:11.442Z,65.26
2022-10-18T10:54:10.472Z,63.47
2022-10-18T10:55:30.844Z,63.61
2022-10-18T10:56:15.799Z,63.34
2022-10-18T10:57:10.398Z,64.43
2022-10-18T10:58:10.389Z,64.36
2022-10-18T10:59:10.458Z,63.51
2022-10-18T11:00:10.392Z,66.01
2022-10-18T11:01:11.376Z,64.65
2022-10-18T11:02:10.372Z,65.33
2022-10-18T11:03:27.389Z,64.11
2022-10-18T11:04:11.566Z,65.37
2022-10-18T11:05:10.346Z,66.25
2022-10-18T11:06:10.335Z,63.96
2022-10-18T11:07:10.332Z,65.44
2022-10-18T11:08:10.361Z,65.00
2022-10-18T11:09:10.301Z,65.64
2022-10-18T11:10:10.314Z,66.14
2022-10-18T11:11:10.285Z,63.88
2022-10-18T11:12:10.285Z,65.54
2022-10-18T11:13:10.278Z,64.75
2022-10-18T11:14:26.888Z,64.59
2022-10-18T11:15:11.279Z,62.51
2022-10-18T11:16:10.248Z,62.62
2022-10-18T11:17:10.248Z,61.25
2022-10-18T11:18:10.242Z,59.81
2022-10-18T11:19:10.229Z,61.70
2022-10-18T11:20:10.227Z,59.18
2022-10-18T11:21:10.245Z,59.56
2022-10-18T11:22:10.209Z,60.33
2022-10-18T11:23:10.200Z,59.79
2022-10-18T11:24:10.874Z,60.96
2022-10-18T11:25:10.173Z,60.98
2022-10-18T11:26:10.175Z,60.95
2022-10-18T11:27:10.184Z,62.12
2022-10-18T11:28:10.152Z,63.05
2022-10-18T11:29:10.139Z,63.08
2022-10-18T11:30:10.148Z,60.41
2022-10-18T11:31:10.128Z,62.69
2022-10-18T11:32:10.124Z,59.98
2022-10-18T11:33:10.167Z,62.06
2022-10-18T11:34:11.202Z,63.17
2022-10-18T11:35:10.710Z,61.65
2022-10-18T11:36:10.114Z,63.84
2022-10-18T11:37:27.071Z,62.07
2022-10-18T11:38:11.098Z,59.89
2022-10-18T11:39:10.068Z,61.75
2022-10-18T11:40:11.244Z,61.30
2022-10-18T11:41:10.040Z,60.72
2022-10-18T11:42:10.162Z,61.35
2022-10-18T11:43:10.044Z,61.61
2022-10-18T11:44:10.031Z,61.63
2022-10-18T11:45:10.100Z,61.95
2022-10-18T11:46:10.446Z,61.07
2022-10-18T11:47:10.027Z,62.36
2022-10-18T11:48:09.990Z,61.84
2022-10-18T11:49:10.887Z,61.66
2022-10-18T11:50:09.998Z,62.21
2022-10-18T11:51:10.821Z,61.19
2022-10-18T11:52:10.069Z,62.57
2022-10-18T11:53:09.984Z,60.39
2022-10-18T11:54:10.000Z,58.31
2022-10-18T11:55:09.940Z,61.40
2022-10-18T11:56:09.931Z,62.50
2022-10-18T11:57:09.931Z,60.40
2022-10-18T11:58:09.915Z,59.80
2022-10-18T11:59:09.903Z,58.52
2022-10-18T12:00:10.862Z,58.15
2022-10-18T12:01:09.890Z,61.31
2022-10-18T12:02:10.093Z,58.43
2022-10-18T12:03:10.027Z,59.81
2022-10-18T12:04:09.873Z,59.67
2022-10-18T12:05:23.245Z,59.55
2022-10-18T12:06:11.229Z,58.69
2022-10-18T12:07:09.856Z,58.65
2022-10-18T12:08:09.841Z,58.17
2022-10-18T12:09:10.035Z,60.92
2022-10-18T12:10:10.211Z,58.98
2022-10-18T12:11:09.816Z,57.08
2022-10-18T12:12:09.809Z,61.10
2022-10-18T12:13:09.801Z,61.08
2022-10-18T12:14:10.154Z,62.17
2022-10-18T12:15:09.805Z,63.00
2022-10-18T12:16:09.778Z,63.56
2022-10-18T12:18:10.774Z,57.65
2022-10-18T12:19:09.761Z,59.68
2022-10-18T12:20:09.796Z,60.45
2022-10-18T12:21:09.910Z,59.76
2022-10-18T12:22:09.754Z,59.27
2022-10-18T12:23:09.730Z,59.47
2022-10-18T12:24:09.703Z,57.72
2022-10-18T12:25:09.689Z,57.62
2022-10-18T12:26:09.732Z,59.12
2022-10-18T12:27:09.988Z,60.36
2022-10-18T12:28:09.674Z,59.60
2022-10-18T12:29:09.682Z,59.13
2022-10-18T12:30:09.758Z,61.69
2022-10-18T12:31:09.667Z,58.93
2022-10-18T12:32:09.650Z,60.68
2022-10-18T12:33:27.343Z,60.84
2022-10-18T12:34:10.634Z,60.66
2022-10-18T12:35:09.675Z,59.87
2022-10-18T12:36:09.597Z,60.12
2022-10-18T12:37:09.731Z,57.29
2022-10-18T12:38:09.671Z,57.93
2022-10-18T12:39:09.761Z,63.22
2022-10-18T12:40:12.492Z,57.71
2022-10-18T12:41:09.651Z,57.30
2022-10-18T12:42:09.555Z,58.24
2022-10-18T12:43:09.552Z,58.88
2022-10-18T12:44:09.540Z,60.28
2022-10-18T12:45:09.548Z,59.01
2022-10-18T12:46:13.532Z,59.54
2022-10-18T12:47:09.514Z,58.45
2022-10-18T12:48:09.509Z,54.49
2022-10-18T12:49:09.497Z,55.83
2022-10-18T12:50:09.520Z,58.92
2022-10-18T12:51:09.534Z,57.68
2022-10-18T12:52:09.687Z,62.06
2022-10-18T12:53:09.465Z,60.14
2022-10-18T12:54:09.615Z,60.27
2022-10-18T12:55:12.776Z,60.63
2022-10-18T12:56:10.465Z,57.93
2022-10-18T12:57:09.428Z,61.50
2022-10-18T12:58:09.475Z,61.47
2022-10-18T13:03:02.425Z,62.37